sensor_id;sensor_type;location;lat;lon;timestamp;pressure;altitude;pressure_sealevel;temperature;humidity
77867;BME280;67271;59.120;37.970;2023-03-24T00:03:12;98311.31;;;4.86;82.93
77867;BME280;67271;59.120;37.970;2023-03-24T00:05:41;98309.03;;;4.83;82.84
77867;BME280;67271;59.120;37.970;2023-03-24T00:08:08;98312.34;;;4.79;83.08
77867;BME280;67271;59.120;37.970;2023-03-24T00:10:34;98302.47;;;4.79;83.05
77867;BME280;67271;59.120;37.970;2023-03-24T00:13:02;98307.19;;;4.84;83.29
77867;BME280;67271;59.120;37.970;2023-03-24T00:15:28;98305.97;;;4.86;83.15
77867;BME280;67271;59.120;37.970;2023-03-24T00:17:54;98300.59;;;4.86;83.09
77867;BME280;67271;59.120;37.970;2023-03-24T00:20:23;98300.59;;;4.86;83.34
77867;BME280;67271;59.120;37.970;2023-03-24T00:22:53;98298.13;;;4.85;83.01
77867;BME280;67271;59.120;37.970;2023-03-24T00:25:26;98289.06;;;4.86;83.39
77867;BME280;67271;59.120;37.970;2023-03-24T00:27:53;98288.03;;;4.80;82.88
77867;BME280;67271;59.120;37.970;2023-03-24T00:30:19;98289.06;;;4.79;83.23
77867;BME280;67271;59.120;37.970;2023-03-24T00:32:45;98285.34;;;4.80;82.99
77867;BME280;67271;59.120;37.970;2023-03-24T00:35:13;98289.66;;;4.81;83.13
77867;BME280;67271;59.120;37.970;2023-03-24T00:37:41;98284.09;;;4.89;83.24
77867;BME280;67271;59.120;37.970;2023-03-24T00:40:10;98278.75;;;4.89;83.01
77867;BME280;67271;59.120;37.970;2023-03-24T00:42:42;98270.09;;;4.87;82.95
77867;BME280;67271;59.120;37.970;2023-03-24T00:45:14;98273.38;;;4.89;83.17
77867;BME280;67271;59.120;37.970;2023-03-24T00:47:40;98277.50;;;4.92;83.09
77867;BME280;67271;59.120;37.970;2023-03-24T00:50:14;98267.22;;;4.95;83.33
77867;BME280;67271;59.120;37.970;2023-03-24T00:52:42;98266.97;;;4.97;83.05
77867;BME280;67271;59.120;37.970;2023-03-24T00:55:13;98266.78;;;4.98;83.34
77867;BME280;67271;59.120;37.970;2023-03-24T00:57:44;98271.31;;;4.98;83.27
77867;BME280;67271;59.120;37.970;2023-03-24T01:00:20;98273.81;;;4.93;83.29
77867;BME280;67271;59.120;37.970;2023-03-24T01:02:50;98269.47;;;4.92;83.53
77867;BME280;67271;59.120;37.970;2023-03-24T01:05:23;98260.19;;;4.94;83.40
77867;BME280;67271;59.120;37.970;2023-03-24T01:07:50;98264.94;;;4.99;83.42
77867;BME280;67271;59.120;37.970;2023-03-24T01:10:19;98263.28;;;4.98;83.29
77867;BME280;67271;59.120;37.970;2023-03-24T01:12:46;98260.00;;;4.96;83.56
77867;BME280;67271;59.120;37.970;2023-03-24T01:15:19;98261.22;;;4.93;83.66
77867;BME280;67271;59.120;37.970;2023-03-24T01:17:45;98262.88;;;4.94;83.64
77867;BME280;67271;59.120;37.970;2023-03-24T01:20:14;98267.22;;;4.95;83.56
77867;BME280;67271;59.120;37.970;2023-03-24T01:22:41;98259.75;;;5.04;83.28
77867;BME280;67271;59.120;37.970;2023-03-24T01:25:20;98260.38;;;5.19;82.85
77867;BME280;67271;59.120;37.970;2023-03-24T01:27:48;98262.63;;;5.22;83.04
77867;BME280;67271;59.120;37.970;2023-03-24T01:30:16;98260.19;;;5.14;82.90
77867;BME280;67271;59.120;37.970;2023-03-24T01:32:43;98264.31;;;5.03;83.18
77867;BME280;67271;59.120;37.970;2023-03-24T01:35:10;98255.03;;;4.99;83.81
77867;BME280;67271;59.120;37.970;2023-03-24T01:37:37;98255.66;;;5.01;83.55
77867;BME280;67271;59.120;37.970;2023-03-24T01:40:05;98256.06;;;4.98;83.47
77867;BME280;67271;59.120;37.970;2023-03-24T01:42:38;98245.13;;;5.00;83.82
77867;BME280;67271;59.120;37.970;2023-03-24T01:48:01;98251.31;;;5.14;83.12
77867;BME280;67271;59.120;37.970;2023-03-24T01:50:29;98251.50;;;5.12;83.42
77867;BME280;67271;59.120;37.970;2023-03-24T01:52:56;98258.13;;;5.10;83.13
77867;BME280;67271;59.120;37.970;2023-03-24T01:55:22;98249.25;;;5.09;83.39
77867;BME280;67271;59.120;37.970;2023-03-24T01:57:52;98248.63;;;5.07;83.15
77867;BME280;67271;59.120;37.970;2023-03-24T02:00:23;98247.00;;;4.99;83.33
77867;BME280;67271;59.120;37.970;2023-03-24T02:03:18;98263.06;;;4.99;83.00
77867;BME280;67271;59.120;37.970;2023-03-24T02:05:52;98260.41;;;4.93;83.32
77867;BME280;67271;59.120;37.970;2023-03-24T02:08:34;98255.69;;;4.88;83.43
77867;BME280;67271;59.120;37.970;2023-03-24T02:11:01;98256.06;;;4.85;83.18
77867;BME280;67271;59.120;37.970;2023-03-24T02:13:36;98260.19;;;4.81;83.23
77867;BME280;67271;59.120;37.970;2023-03-24T02:16:38;98258.56;;;4.80;82.88
77867;BME280;67271;59.120;37.970;2023-03-24T02:36:35;98244.13;;;4.68;83.21
77867;BME280;67271;59.120;37.970;2023-03-24T02:45:15;98249.66;;;4.66;83.19
77867;BME280;67271;59.120;37.970;2023-03-24T02:53:19;98242.06;;;4.70;83.55
77867;BME280;67271;59.120;37.970;2023-03-24T02:56:12;98250.28;;;4.68;83.52
77867;BME280;67271;59.120;37.970;2023-03-24T02:58:52;98245.56;;;4.71;83.45
77867;BME280;67271;59.120;37.970;2023-03-24T03:01:31;98244.75;;;4.70;83.68
77867;BME280;67271;59.120;37.970;2023-03-24T03:04:37;98254.81;;;4.75;83.22
77867;BME280;67271;59.120;37.970;2023-03-24T03:07:06;98243.72;;;4.71;83.14
77867;BME280;67271;59.120;37.970;2023-03-24T03:09:43;98249.28;;;4.70;83.21
77867;BME280;67271;59.120;37.970;2023-03-24T03:12:12;98249.06;;;4.71;83.49
77867;BME280;67271;59.120;37.970;2023-03-24T03:14:51;98253.41;;;4.72;83.09
77867;BME280;67271;59.120;37.970;2023-03-24T03:17:24;98253.41;;;4.72;83.42
77867;BME280;67271;59.120;37.970;2023-03-24T03:19:58;98256.09;;;4.72;83.44
77867;BME280;67271;59.120;37.970;2023-03-24T03:22:35;98256.28;;;4.71;83.20
77867;BME280;67271;59.120;37.970;2023-03-24T03:25:03;98252.78;;;4.70;83.47
77867;BME280;67271;59.120;37.970;2023-03-24T03:27:32;98256.28;;;4.71;83.42
77867;BME280;67271;59.120;37.970;2023-03-24T03:30:41;98251.94;;;4.70;83.32
77867;BME280;67271;59.120;37.970;2023-03-24T03:33:04;98245.38;;;4.65;83.13
77867;BME280;67271;59.120;37.970;2023-03-24T03:35:57;98258.53;;;4.67;83.47
77867;BME280;67271;59.120;37.970;2023-03-24T03:38:43;98254.22;;;4.66;83.25
77867;BME280;67271;59.120;37.970;2023-03-24T03:41:11;98261.63;;;4.64;83.43
77867;BME280;67271;59.120;37.970;2023-03-24T03:43:37;98265.97;;;4.65;83.31
77867;BME280;67271;59.120;37.970;2023-03-24T03:46:04;98261.22;;;4.60;83.04
77867;BME280;67271;59.120;37.970;2023-03-24T03:48:35;98268.03;;;4.56;83.09
77867;BME280;67271;59.120;37.970;2023-03-24T03:51:02;98272.13;;;4.59;82.97
77867;BME280;67271;59.120;37.970;2023-03-24T03:53:42;98261.22;;;4.60;83.14
77867;BME280;67271;59.120;37.970;2023-03-24T03:56:10;98261.63;;;4.64;83.60
77867;BME280;67271;59.120;37.970;2023-03-24T03:58:45;98262.25;;;4.66;82.98
77867;BME280;67271;59.120;37.970;2023-03-24T04:01:16;98260.81;;;4.63;83.32
77867;BME280;67271;59.120;37.970;2023-03-24T04:07:23;98259.78;;;4.71;83.12
77867;BME280;67271;59.120;37.970;2023-03-24T04:20:00;98256.28;;;5.03;82.61
77867;BME280;67271;59.120;37.970;2023-03-24T04:23:14;98246.16;;;4.99;82.98
77867;BME280;67271;59.120;37.970;2023-03-24T04:31:59;98244.94;;;4.95;82.75
77867;BME280;67271;59.120;37.970;2023-03-24T04:34:26;98240.63;;;4.94;82.88
77867;BME280;67271;59.120;37.970;2023-03-24T04:37:00;98244.50;;;4.98;82.80
77867;BME280;67271;59.120;37.970;2023-03-24T04:39:53;98243.50;;;4.99;82.65
77867;BME280;67271;59.120;37.970;2023-03-24T04:42:33;98242.03;;;5.10;82.55
77867;BME280;67271;59.120;37.970;2023-03-24T04:45:01;98240.59;;;5.14;82.77
77867;BME280;67271;59.120;37.970;2023-03-24T04:47:49;98244.50;;;5.24;82.36
77867;BME280;67271;59.120;37.970;2023-03-24T04:50:40;98245.31;;;5.25;82.15
77867;BME280;67271;59.120;37.970;2023-03-24T04:53:12;98256.03;;;5.25;82.01
77867;BME280;67271;59.120;37.970;2023-03-24T04:58:20;98260.97;;;5.28;81.97
77867;BME280;67271;59.120;37.970;2023-03-24T05:00:47;98263.06;;;5.26;82.34
77867;BME280;67271;59.120;37.970;2023-03-24T05:03:15;98271.91;;;5.26;81.99
77867;BME280;67271;59.120;37.970;2023-03-24T05:05:44;98270.47;;;5.24;82.49
77867;BME280;67271;59.120;37.970;2023-03-24T05:08:10;98280.78;;;5.20;82.43
77867;BME280;67271;59.120;37.970;2023-03-24T05:10:37;98275.41;;;5.20;82.50
77867;BME280;67271;59.120;37.970;2023-03-24T05:13:06;98281.59;;;5.34;82.29
77867;BME280;67271;59.120;37.970;2023-03-24T05:15:33;98284.06;;;5.42;82.30
77867;BME280;67271;59.120;37.970;2023-03-24T05:18:15;98282.44;;;5.41;82.22
77867;BME280;67271;59.120;37.970;2023-03-24T05:20:41;98280.34;;;5.43;81.74
77867;BME280;67271;59.120;37.970;2023-03-24T05:23:15;98292.31;;;5.47;81.50
77867;BME280;67271;59.120;37.970;2023-03-24T05:25:45;98286.50;;;5.57;81.70
77867;BME280;67271;59.120;37.970;2023-03-24T05:28:12;98282.75;;;5.64;81.38
77867;BME280;67271;59.120;37.970;2023-03-24T05:30:38;98285.22;;;5.72;81.25
77867;BME280;67271;59.120;37.970;2023-03-24T05:33:14;98285.25;;;5.59;81.43
77867;BME280;67271;59.120;37.970;2023-03-24T05:35:40;98286.94;;;5.47;81.55
77867;BME280;67271;59.120;37.970;2023-03-24T05:38:06;98277.44;;;5.51;81.27
77867;BME280;67271;59.120;37.970;2023-03-24T05:40:33;98282.41;;;5.48;81.39
77867;BME280;67271;59.120;37.970;2023-03-24T05:43:09;98286.13;;;5.47;81.62
77867;BME280;67271;59.120;37.970;2023-03-24T05:45:40;98284.03;;;5.62;81.04
77867;BME280;67271;59.120;37.970;2023-03-24T05:48:07;98284.38;;;5.85;80.86
77867;BME280;67271;59.120;37.970;2023-03-24T05:50:54;98285.59;;;5.89;80.18
77867;BME280;67271;59.120;37.970;2023-03-24T05:53:20;98289.91;;;5.97;80.31
77867;BME280;67271;59.120;37.970;2023-03-24T05:56:05;98293.44;;;5.97;80.04
77867;BME280;67271;59.120;37.970;2023-03-24T05:58:54;98295.88;;;6.05;80.00
77867;BME280;67271;59.120;37.970;2023-03-24T06:01:22;98288.03;;;6.04;80.21
77867;BME280;67271;59.120;37.970;2023-03-24T06:03:56;98303.69;;;6.13;80.23
77867;BME280;67271;59.120;37.970;2023-03-24T06:06:22;98306.28;;;6.33;79.88
77867;BME280;67271;59.120;37.970;2023-03-24T06:08:48;98305.72;;;6.56;79.34
77867;BME280;67271;59.120;37.970;2023-03-24T06:11:15;98313.16;;;6.60;79.17
77867;BME280;67271;59.120;37.970;2023-03-24T06:13:52;98315.88;;;6.54;79.69
77867;BME280;67271;59.120;37.970;2023-03-24T06:16:27;98313.53;;;6.64;79.51
77867;BME280;67271;59.120;37.970;2023-03-24T06:18:59;98308.38;;;6.63;79.45
77867;BME280;67271;59.120;37.970;2023-03-24T06:22:03;98305.44;;;6.71;79.58
77867;BME280;67271;59.120;37.970;2023-03-24T06:24:37;98300.50;;;6.92;78.50
77867;BME280;67271;59.120;37.970;2023-03-24T06:27:07;98295.38;;;6.91;78.90
77867;BME280;67271;59.120;37.970;2023-03-24T06:29:35;98295.75;;;6.94;78.67
77867;BME280;67271;59.120;37.970;2023-03-24T06:32:02;98295.38;;;6.91;78.25
77867;BME280;67271;59.120;37.970;2023-03-24T06:34:34;98292.13;;;6.82;78.83
77867;BME280;67271;59.120;37.970;2023-03-24T06:37:12;98289.50;;;7.00;78.63
77867;BME280;67271;59.120;37.970;2023-03-24T06:39:39;98291.34;;;7.25;78.19
77867;BME280;67271;59.120;37.970;2023-03-24T06:42:05;98288.13;;;7.16;77.93
77867;BME280;67271;59.120;37.970;2023-03-24T06:44:32;98285.31;;;6.80;78.79
77867;BME280;67271;59.120;37.970;2023-03-24T06:46:58;98289.34;;;6.64;79.15
77867;BME280;67271;59.120;37.970;2023-03-24T06:49:25;98286.56;;;6.77;78.71
77867;BME280;67271;59.120;37.970;2023-03-24T06:51:51;98285.44;;;6.91;78.11
77867;BME280;67271;59.120;37.970;2023-03-24T06:54:18;98282.19;;;7.08;78.28
77867;BME280;67271;59.120;37.970;2023-03-24T06:56:44;98279.78;;;7.24;77.75
77867;BME280;67271;59.120;37.970;2023-03-24T06:59:10;98286.94;;;7.30;77.14
77867;BME280;67271;59.120;37.970;2023-03-24T07:01:37;98277.69;;;7.26;77.08
77867;BME280;67271;59.120;37.970;2023-03-24T07:04:23;98278.41;;;7.15;77.88
77867;BME280;67271;59.120;37.970;2023-03-24T07:06:51;98275.41;;;7.05;78.07
77867;BME280;67271;59.120;37.970;2023-03-24T07:09:26;98280.31;;;7.08;77.98
77867;BME280;67271;59.120;37.970;2023-03-24T07:11:55;98277.34;;;7.16;77.63
77867;BME280;67271;59.120;37.970;2023-03-24T07:14:21;98288.88;;;7.23;77.56
77867;BME280;67271;59.120;37.970;2023-03-24T07:16:51;98288.88;;;7.23;77.35
77867;BME280;67271;59.120;37.970;2023-03-24T07:19:50;98294.09;;;7.18;77.96
77867;BME280;67271;59.120;37.970;2023-03-24T07:22:45;98295.09;;;6.99;78.24
77867;BME280;67271;59.120;37.970;2023-03-24T07:25:50;98298.50;;;6.88;78.43
77867;BME280;67271;59.120;37.970;2023-03-24T07:28:23;98299.09;;;6.90;78.61
77867;BME280;67271;59.120;37.970;2023-03-24T07:30:49;98304.47;;;6.90;78.24
77867;BME280;67271;59.120;37.970;2023-03-24T07:33:18;98308.41;;;6.87;78.53
77867;BME280;67271;59.120;37.970;2023-03-24T07:35:44;98304.22;;;6.98;77.98
77867;BME280;67271;59.120;37.970;2023-03-24T07:38:10;98304.19;;;7.23;77.81
77867;BME280;67271;59.120;37.970;2023-03-24T07:40:36;98299.97;;;7.33;77.23
77867;BME280;67271;59.120;37.970;2023-03-24T07:43:03;98297.41;;;7.20;77.24
77867;BME280;67271;59.120;37.970;2023-03-24T07:45:30;98297.28;;;7.09;77.42
77867;BME280;67271;59.120;37.970;2023-03-24T07:47:57;98298.06;;;6.91;78.25
77867;BME280;67271;59.120;37.970;2023-03-24T07:50:29;98304.19;;;6.73;78.21
77867;BME280;67271;59.120;37.970;2023-03-24T07:52:56;98303.53;;;6.46;78.93
77867;BME280;67271;59.120;37.970;2023-03-24T07:55:23;98309.56;;;6.35;79.06
77867;BME280;67271;59.120;37.970;2023-03-24T07:58:00;98313.69;;;6.38;78.97
77867;BME280;67271;59.120;37.970;2023-03-24T08:00:34;98327.72;;;6.46;78.80
77867;BME280;67271;59.120;37.970;2023-03-24T08:03:31;98336.56;;;6.47;78.63
77867;BME280;67271;59.120;37.970;2023-03-24T08:06:18;98332.44;;;6.51;78.08
77867;BME280;67271;59.120;37.970;2023-03-24T08:08:51;98340.84;;;6.61;78.26
77867;BME280;67271;59.120;37.970;2023-03-24T08:11:17;98344.97;;;6.64;77.95
77867;BME280;67271;59.120;37.970;2023-03-24T08:13:43;98342.09;;;6.58;77.85
77867;BME280;67271;59.120;37.970;2023-03-24T08:16:08;98352.16;;;6.76;77.94
77867;BME280;67271;59.120;37.970;2023-03-24T08:18:37;98352.41;;;6.93;77.34
77867;BME280;67271;59.120;37.970;2023-03-24T08:21:04;98346.53;;;7.09;76.75
77867;BME280;67271;59.120;37.970;2023-03-24T08:23:30;98351.22;;;7.20;76.84
77867;BME280;67271;59.120;37.970;2023-03-24T08:25:56;98353.06;;;7.20;76.89
77867;BME280;67271;59.120;37.970;2023-03-24T08:28:22;98347.50;;;7.15;77.05
77867;BME280;67271;59.120;37.970;2023-03-24T08:30:48;98342.69;;;6.98;77.55
77867;BME280;67271;59.120;37.970;2023-03-24T08:33:15;98340.72;;;7.12;76.94
77867;BME280;67271;59.120;37.970;2023-03-24T08:35:41;98338.34;;;7.22;76.43
77867;BME280;67271;59.120;37.970;2023-03-24T08:38:09;98343.66;;;7.54;75.95
77867;BME280;67271;59.120;37.970;2023-03-24T08:40:41;98333.84;;;7.84;74.55
77867;BME280;67271;59.120;37.970;2023-03-24T08:43:09;98341.09;;;8.20;74.08
77867;BME280;67271;59.120;37.970;2023-03-24T08:45:37;98330.16;;;8.51;73.46
77867;BME280;67271;59.120;37.970;2023-03-24T08:48:05;98331.13;;;8.87;72.22
77867;BME280;67271;59.120;37.970;2023-03-24T08:50:37;98322.22;;;9.10;71.78
77867;BME280;67271;59.120;37.970;2023-03-24T08:53:03;98333.78;;;9.17;72.24
77867;BME280;67271;59.120;37.970;2023-03-24T08:55:29;98329.81;;;9.31;72.14
77867;BME280;67271;59.120;37.970;2023-03-24T08:57:55;98325.44;;;9.42;71.16
77867;BME280;67271;59.120;37.970;2023-03-24T09:00:22;98322.41;;;9.50;71.51
77867;BME280;67271;59.120;37.970;2023-03-24T09:02:49;98325.56;;;9.35;71.75
77867;BME280;67271;59.120;37.970;2023-03-24T09:05:17;98330.31;;;9.10;72.74
77867;BME280;67271;59.120;37.970;2023-03-24T09:07:46;98334.03;;;8.85;73.24
77867;BME280;67271;59.120;37.970;2023-03-24T09:10:13;98330.03;;;8.88;73.33
77867;BME280;67271;59.120;37.970;2023-03-24T09:12:41;98334.44;;;9.01;72.53
77867;BME280;67271;59.120;37.970;2023-03-24T09:15:11;98323.31;;;9.20;71.70
77867;BME280;67271;59.120;37.970;2023-03-24T09:17:38;98328.97;;;9.30;71.70
77867;BME280;67271;59.120;37.970;2023-03-24T09:20:10;98329.91;;;9.24;71.60
77867;BME280;67271;59.120;37.970;2023-03-24T09:22:38;98329.31;;;9.22;72.07
77867;BME280;67271;59.120;37.970;2023-03-24T09:25:04;98331.91;;;9.29;71.90
77867;BME280;67271;59.120;37.970;2023-03-24T09:27:30;98323.47;;;9.37;70.93
77867;BME280;67271;59.120;37.970;2023-03-24T09:29:56;98314.69;;;9.53;70.73
77867;BME280;67271;59.120;37.970;2023-03-24T09:32:22;98315.72;;;9.76;70.31
77867;BME280;67271;59.120;37.970;2023-03-24T09:34:48;98309.00;;;9.78;70.42
77867;BME280;67271;59.120;37.970;2023-03-24T09:37:14;98306.31;;;9.66;70.56
77867;BME280;67271;59.120;37.970;2023-03-24T09:39:40;98316.19;;;9.84;70.00
77867;BME280;67271;59.120;37.970;2023-03-24T09:42:06;98315.69;;;9.99;69.30
77867;BME280;67271;59.120;37.970;2023-03-24T09:44:42;98314.03;;;10.21;68.69
77867;BME280;67271;59.120;37.970;2023-03-24T09:49:59;98309.50;;;10.38;68.50
77867;BME280;67271;59.120;37.970;2023-03-24T09:52:34;98311.66;;;10.25;68.46
77867;BME280;67271;59.120;37.970;2023-03-24T09:55:02;98309.78;;;10.14;68.35
77867;BME280;67271;59.120;37.970;2023-03-24T09:57:35;98304.50;;;10.19;68.27
77867;BME280;67271;59.120;37.970;2023-03-24T10:00:15;98304.53;;;10.07;68.46
77867;BME280;67271;59.120;37.970;2023-03-24T10:02:43;98302.50;;;10.14;68.40
77867;BME280;67271;59.120;37.970;2023-03-24T10:07:51;98304.22;;;10.32;67.69
77867;BME280;67271;59.120;37.970;2023-03-24T10:10:43;98298.16;;;10.25;67.81
77867;BME280;67271;59.120;37.970;2023-03-24T10:13:20;98304.88;;;10.22;68.01
77867;BME280;67271;59.120;37.970;2023-03-24T10:16:11;98308.13;;;10.24;68.07
77867;BME280;67271;59.120;37.970;2023-03-24T10:19:04;98317.69;;;10.03;68.41
77867;BME280;67271;59.120;37.970;2023-03-24T10:21:37;98313.81;;;9.88;68.68
77867;BME280;67271;59.120;37.970;2023-03-24T10:24:41;98310.53;;;9.86;68.80
77867;BME280;67271;59.120;37.970;2023-03-24T10:27:29;98316.75;;;9.98;68.25
77867;BME280;67271;59.120;37.970;2023-03-24T10:30:05;98308.38;;;10.11;67.89
77867;BME280;67271;59.120;37.970;2023-03-24T10:32:36;98318.75;;;9.91;68.50
77867;BME280;67271;59.120;37.970;2023-03-24T10:35:05;98314.06;;;9.63;68.57
77867;BME280;67271;59.120;37.970;2023-03-24T10:37:35;98323.69;;;9.47;69.21
77867;BME280;67271;59.120;37.970;2023-03-24T10:40:04;98332.50;;;9.31;69.47
77867;BME280;67271;59.120;37.970;2023-03-24T10:42:36;98332.34;;;9.26;69.47
77867;BME280;67271;59.120;37.970;2023-03-24T10:45:03;98327.78;;;9.26;69.03
77867;BME280;67271;59.120;37.970;2023-03-24T10:47:29;98327.44;;;9.23;69.42
77867;BME280;67271;59.120;37.970;2023-03-24T10:49:59;98328.81;;;9.14;69.33
77867;BME280;67271;59.120;37.970;2023-03-24T10:52:26;98335.00;;;8.91;69.21
77867;BME280;67271;59.120;37.970;2023-03-24T10:54:57;98339.47;;;8.67;70.12
77867;BME280;67271;59.120;37.970;2023-03-24T10:57:24;98337.59;;;8.38;71.23
77867;BME280;67271;59.120;37.970;2023-03-24T11:00:00;98343.94;;;8.25;71.00
77867;BME280;67271;59.120;37.970;2023-03-24T11:02:42;98347.53;;;8.19;71.26
77867;BME280;67271;59.120;37.970;2023-03-24T11:05:14;98347.16;;;8.15;71.37
77867;BME280;67271;59.120;37.970;2023-03-24T11:07:44;98351.41;;;8.05;72.28
77867;BME280;67271;59.120;37.970;2023-03-24T11:15:26;98358.00;;;7.91;72.71
77867;BME280;67271;59.120;37.970;2023-03-24T11:17:58;98344.25;;;8.17;71.74
77867;BME280;67271;59.120;37.970;2023-03-24T11:20:39;98349.88;;;8.34;71.15
77867;BME280;67271;59.120;37.970;2023-03-24T11:25:36;98346.66;;;8.73;70.28
77867;BME280;67271;59.120;37.970;2023-03-24T11:28:14;98349.91;;;8.93;69.89
77867;BME280;67271;59.120;37.970;2023-03-24T11:30:50;98347.31;;;8.99;70.24
77867;BME280;67271;59.120;37.970;2023-03-24T11:33:41;98348.06;;;9.17;69.38
77867;BME280;67271;59.120;37.970;2023-03-24T11:41:29;98359.22;;;9.09;69.94
77867;BME280;67271;59.120;37.970;2023-03-24T11:44:24;98348.75;;;9.13;69.97
77867;BME280;67271;59.120;37.970;2023-03-24T11:46:57;98352.88;;;9.15;70.56
77867;BME280;67271;59.120;37.970;2023-03-24T11:49:30;98349.59;;;9.13;70.16
77867;BME280;67271;59.120;37.970;2023-03-24T11:51:57;98358.72;;;9.01;70.73
77867;BME280;67271;59.120;37.970;2023-03-24T11:54:30;98362.47;;;9.00;70.84
77867;BME280;67271;59.120;37.970;2023-03-24T11:57:02;98355.53;;;9.04;71.20
77867;BME280;67271;59.120;37.970;2023-03-24T11:59:46;98361.22;;;9.14;70.80
77867;BME280;67271;59.120;37.970;2023-03-24T12:02:42;98365.22;;;9.23;70.46
77867;BME280;67271;59.120;37.970;2023-03-24T12:08:21;98363.22;;;8.88;71.76
77867;BME280;67271;59.120;37.970;2023-03-24T12:11:16;98369.19;;;8.79;72.02
77867;BME280;67271;59.120;37.970;2023-03-24T12:13:43;98368.00;;;8.75;72.11
77867;BME280;67271;59.120;37.970;2023-03-24T12:29:59;98378.97;;;8.43;72.19
77867;BME280;67271;59.120;37.970;2023-03-24T12:35:53;98381.78;;;8.67;71.45
77867;BME280;67271;59.120;37.970;2023-03-24T13:00:30;98386.59;;;7.67;75.02
77867;BME280;67271;59.120;37.970;2023-03-24T13:03:00;98388.72;;;7.65;75.42
77867;BME280;67271;59.120;37.970;2023-03-24T13:05:34;98387.50;;;7.61;75.72
77867;BME280;67271;59.120;37.970;2023-03-24T13:08:04;98382.88;;;7.68;75.32
77867;BME280;67271;59.120;37.970;2023-03-24T13:10:36;98371.59;;;7.77;75.21
77867;BME280;67271;59.120;37.970;2023-03-24T13:13:12;98374.44;;;7.83;74.83
77867;BME280;67271;59.120;37.970;2023-03-24T13:15:42;98374.00;;;7.86;74.58
77867;BME280;67271;59.120;37.970;2023-03-24T13:26:36;98388.09;;;7.63;75.52
77867;BME280;67271;59.120;37.970;2023-03-24T13:34:38;98386.28;;;7.57;75.80
77867;BME280;67271;59.120;37.970;2023-03-24T13:37:06;98385.13;;;7.46;75.85
77867;BME280;67271;59.120;37.970;2023-03-24T13:39:36;98377.13;;;7.39;76.22
77867;BME280;67271;59.120;37.970;2023-03-24T13:42:02;98378.16;;;7.38;76.78
77867;BME280;67271;59.120;37.970;2023-03-24T13:44:39;98388.03;;;7.45;76.67
77867;BME280;67271;59.120;37.970;2023-03-24T13:49:40;98387.25;;;7.44;76.54
77867;BME280;67271;59.120;37.970;2023-03-24T13:52:37;98381.88;;;7.37;76.58
77867;BME280;67271;59.120;37.970;2023-03-24T13:58:16;98378.31;;;7.19;77.10
77867;BME280;67271;59.120;37.970;2023-03-24T14:03:35;98382.94;;;7.12;77.16
77867;BME280;67271;59.120;37.970;2023-03-24T14:06:05;98384.94;;;7.16;77.05
77867;BME280;67271;59.120;37.970;2023-03-24T14:14:16;98392.50;;;7.01;77.48
77867;BME280;67271;59.120;37.970;2023-03-24T14:17:01;98393.78;;;6.92;77.49
77867;BME280;67271;59.120;37.970;2023-03-24T14:19:34;98388.94;;;6.76;77.74
77867;BME280;67271;59.120;37.970;2023-03-24T14:22:27;98389.00;;;6.63;78.06
77867;BME280;67271;59.120;37.970;2023-03-24T14:25:00;98388.41;;;6.60;78.31
77867;BME280;67271;59.120;37.970;2023-03-24T14:27:34;98390.03;;;6.61;78.36
77867;BME280;67271;59.120;37.970;2023-03-24T14:30:27;98399.78;;;6.56;78.31
77867;BME280;67271;59.120;37.970;2023-03-24T14:33:03;98396.09;;;6.50;78.25
77867;BME280;67271;59.120;37.970;2023-03-24T14:35:38;98392.41;;;6.45;78.43
77867;BME280;67271;59.120;37.970;2023-03-24T14:40:42;98389.88;;;6.50;78.49
77867;BME280;67271;59.120;37.970;2023-03-24T14:43:51;98379.56;;;6.53;78.11
77867;BME280;67271;59.120;37.970;2023-03-24T14:48:57;98393.44;;;6.44;78.43
77867;BME280;67271;59.120;37.970;2023-03-24T14:51:42;98391.78;;;6.43;78.61
77867;BME280;67271;59.120;37.970;2023-03-24T14:56:43;98394.88;;;6.46;78.21
77867;BME280;67271;59.120;37.970;2023-03-24T14:59:45;98391.97;;;6.48;78.55
77867;BME280;67271;59.120;37.970;2023-03-24T15:07:44;98395.75;;;6.34;78.75
77867;BME280;67271;59.120;37.970;2023-03-24T15:10:15;98404.66;;;6.28;78.80
77867;BME280;67271;59.120;37.970;2023-03-24T15:12:46;98403.66;;;6.22;78.96
77867;BME280;67271;59.120;37.970;2023-03-24T15:15:21;98403.22;;;6.18;79.09
77867;BME280;67271;59.120;37.970;2023-03-24T15:17:49;98409.88;;;6.16;79.13
77867;BME280;67271;59.120;37.970;2023-03-24T15:20:30;98411.09;;;6.13;79.11
77867;BME280;67271;59.120;37.970;2023-03-24T15:23:05;98414.41;;;6.15;79.67
77867;BME280;67271;59.120;37.970;2023-03-24T15:25:31;98418.34;;;6.13;79.55
77867;BME280;67271;59.120;37.970;2023-03-24T15:28:00;98411.50;;;6.10;79.37
77867;BME280;67271;59.120;37.970;2023-03-24T15:30:27;98410.91;;;6.02;79.40
77867;BME280;67271;59.120;37.970;2023-03-24T15:32:53;98416.53;;;5.94;79.58
77867;BME280;67271;59.120;37.970;2023-03-24T15:35:23;98420.25;;;5.93;79.58
77867;BME280;67271;59.120;37.970;2023-03-24T15:37:58;98414.66;;;5.88;80.15
77867;BME280;67271;59.120;37.970;2023-03-24T15:42:56;98414.66;;;5.74;79.77
77867;BME280;67271;59.120;37.970;2023-03-24T15:45:43;98420.66;;;5.63;79.93
77867;BME280;67271;59.120;37.970;2023-03-24T15:48:19;98426.81;;;5.57;80.60
77867;BME280;67271;59.120;37.970;2023-03-24T15:51:01;98438.63;;;5.56;80.75
77867;BME280;67271;59.120;37.970;2023-03-24T15:53:29;98441.50;;;5.48;80.24
77867;BME280;67271;59.120;37.970;2023-03-24T15:58:49;98443.75;;;5.38;80.44
77867;BME280;67271;59.120;37.970;2023-03-24T16:01:19;98448.69;;;5.34;80.84
77867;BME280;67271;59.120;37.970;2023-03-24T16:03:46;98459.41;;;5.28;80.89
77867;BME280;67271;59.120;37.970;2023-03-24T16:06:24;98452.63;;;5.25;80.86
77867;BME280;67271;59.120;37.970;2023-03-24T16:08:51;98456.31;;;5.24;81.30
77867;BME280;67271;59.120;37.970;2023-03-24T16:11:17;98460.25;;;5.28;80.78
77867;BME280;67271;59.120;37.970;2023-03-24T16:13:44;98466.88;;;5.32;80.75